sensor_id;sensor_type;location;lat;lon;timestamp;P1;durP1;ratioP1;P2;durP2;ratioP2
69502;SDS011;56704;54.242;12.442;2023-10-19T00:02:07;4.43;;;1.00;;
69502;SDS011;56704;54.242;12.442;2023-10-19T00:04:37;4.20;;;0.97;;
69502;SDS011;56704;54.242;12.442;2023-10-19T00:07:05;4.50;;;1.10;;
69502;SDS011;56704;54.242;12.442;2023-10-19T00:09:33;3.65;;;1.02;;
69502;SDS011;56704;54.242;12.442;2023-10-19T00:12:03;3.03;;;0.70;;
69502;SDS011;56704;54.242;12.442;2023-10-19T00:14:34;3.88;;;0.90;;
69502;SDS011;56704;54.242;12.442;2023-10-19T00:17:00;4.33;;;1.07;;
69502;SDS011;56704;54.242;12.442;2023-10-19T00:19:32;3.78;;;0.95;;
69502;SDS011;56704;54.242;12.442;2023-10-19T00:22:06;4.53;;;1.10;;
69502;SDS011;56704;54.242;12.442;2023-10-19T00:24:45;3.10;;;0.77;;
69502;SDS011;56704;54.242;12.442;2023-10-19T00:27:12;5.18;;;1.25;;
69502;SDS011;56704;54.242;12.442;2023-10-19T00:29:41;4.53;;;1.03;;
69502;SDS011;56704;54.242;12.442;2023-10-19T00:32:14;5.13;;;1.30;;
69502;SDS011;56704;54.242;12.442;2023-10-19T00:34:44;5.47;;;0.95;;
69502;SDS011;56704;54.242;12.442;2023-10-19T00:37:17;4.65;;;1.00;;
69502;SDS011;56704;54.242;12.442;2023-10-19T00:39:51;3.47;;;1.00;;
69502;SDS011;56704;54.242;12.442;2023-10-19T00:42:20;4.30;;;1.07;;
69502;SDS011;56704;54.242;12.442;2023-10-19T00:44:50;4.95;;;1.20;;
69502;SDS011;56704;54.242;12.442;2023-10-19T00:47:26;3.20;;;0.90;;
69502;SDS011;56704;54.242;12.442;2023-10-19T00:50:00;3.95;;;1.10;;
69502;SDS011;56704;54.242;12.442;2023-10-19T00:52:30;4.10;;;0.90;;
69502;SDS011;56704;54.242;12.442;2023-10-19T00:55:07;5.40;;;0.90;;
69502;SDS011;56704;54.242;12.442;2023-10-19T00:57:34;3.30;;;0.98;;
69502;SDS011;56704;54.242;12.442;2023-10-19T01:00:02;4.47;;;1.05;;
69502;SDS011;56704;54.242;12.442;2023-10-19T01:02:37;6.93;;;0.90;;
69502;SDS011;56704;54.242;12.442;2023-10-19T01:05:10;4.07;;;1.10;;
69502;SDS011;56704;54.242;12.442;2023-10-19T01:07:38;3.60;;;0.93;;
69502;SDS011;56704;54.242;12.442;2023-10-19T01:10:06;5.95;;;1.52;;
69502;SDS011;56704;54.242;12.442;2023-10-19T01:12:34;4.30;;;1.17;;
69502;SDS011;56704;54.242;12.442;2023-10-19T01:15:05;4.50;;;1.20;;
69502;SDS011;56704;54.242;12.442;2023-10-19T01:17:35;4.38;;;1.27;;
69502;SDS011;56704;54.242;12.442;2023-10-19T01:20:06;5.10;;;1.93;;
69502;SDS011;56704;54.242;12.442;2023-10-19T01:22:46;4.88;;;1.33;;
69502;SDS011;56704;54.242;12.442;2023-10-19T01:25:15;3.90;;;1.58;;
69502;SDS011;56704;54.242;12.442;2023-10-19T01:27:43;5.90;;;1.60;;
69502;SDS011;56704;54.242;12.442;2023-10-19T01:30:10;5.18;;;1.45;;
69502;SDS011;56704;54.242;12.442;2023-10-19T01:32:39;6.50;;;1.30;;
69502;SDS011;56704;54.242;12.442;2023-10-19T01:35:07;5.93;;;1.75;;
69502;SDS011;56704;54.242;12.442;2023-10-19T01:37:34;5.07;;;1.52;;
69502;SDS011;56704;54.242;12.442;2023-10-19T01:40:05;5.70;;;1.52;;
69502;SDS011;56704;54.242;12.442;2023-10-19T01:42:33;3.97;;;1.40;;
69502;SDS011;56704;54.242;12.442;2023-10-19T01:44:59;4.27;;;1.20;;
69502;SDS011;56704;54.242;12.442;2023-10-19T01:47:26;3.42;;;1.20;;
69502;SDS011;56704;54.242;12.442;2023-10-19T01:49:53;6.18;;;1.42;;
69502;SDS011;56704;54.242;12.442;2023-10-19T01:52:20;4.75;;;1.33;;
69502;SDS011;56704;54.242;12.442;2023-10-19T01:54:49;5.00;;;1.52;;
69502;SDS011;56704;54.242;12.442;2023-10-19T01:57:25;4.57;;;1.13;;
69502;SDS011;56704;54.242;12.442;2023-10-19T01:59:51;6.32;;;1.20;;
69502;SDS011;56704;54.242;12.442;2023-10-19T02:02:18;6.38;;;1.20;;
69502;SDS011;56704;54.242;12.442;2023-10-19T02:04:46;4.32;;;1.30;;
69502;SDS011;56704;54.242;12.442;2023-10-19T02:07:16;6.03;;;1.42;;
69502;SDS011;56704;54.242;12.442;2023-10-19T02:09:43;5.50;;;1.40;;
69502;SDS011;56704;54.242;12.442;2023-10-19T02:12:09;6.95;;;1.23;;
69502;SDS011;56704;54.242;12.442;2023-10-19T02:14:36;6.90;;;1.80;;
69502;SDS011;56704;54.242;12.442;2023-10-19T02:17:04;5.17;;;1.30;;
69502;SDS011;56704;54.242;12.442;2023-10-19T02:19:30;5.82;;;1.20;;
69502;SDS011;56704;54.242;12.442;2023-10-19T02:21:59;6.18;;;1.88;;
69502;SDS011;56704;54.242;12.442;2023-10-19T02:24:28;3.80;;;1.33;;
69502;SDS011;56704;54.242;12.442;2023-10-19T02:26:56;6.20;;;1.50;;
69502;SDS011;56704;54.242;12.442;2023-10-19T02:29:22;5.32;;;1.42;;
69502;SDS011;56704;54.242;12.442;2023-10-19T02:31:52;5.68;;;1.40;;
69502;SDS011;56704;54.242;12.442;2023-10-19T02:34:18;4.78;;;1.50;;
69502;SDS011;56704;54.242;12.442;2023-10-19T02:36:45;6.85;;;1.80;;
69502;SDS011;56704;54.242;12.442;2023-10-19T02:39:13;4.40;;;1.33;;
69502;SDS011;56704;54.242;12.442;2023-10-19T02:41:40;5.05;;;1.63;;
69502;SDS011;56704;54.242;12.442;2023-10-19T02:44:08;4.95;;;1.40;;
69502;SDS011;56704;54.242;12.442;2023-10-19T02:46:39;5.53;;;1.33;;
69502;SDS011;56704;54.242;12.442;2023-10-19T02:49:08;6.90;;;1.70;;
69502;SDS011;56704;54.242;12.442;2023-10-19T02:51:36;6.80;;;1.67;;
69502;SDS011;56704;54.242;12.442;2023-10-19T02:54:03;5.88;;;1.40;;
69502;SDS011;56704;54.242;12.442;2023-10-19T02:56:32;5.18;;;1.50;;
69502;SDS011;56704;54.242;12.442;2023-10-19T02:59:01;5.57;;;1.83;;
69502;SDS011;56704;54.242;12.442;2023-10-19T03:01:29;4.82;;;1.35;;
69502;SDS011;56704;54.242;12.442;2023-10-19T03:03:56;5.70;;;1.50;;
69502;SDS011;56704;54.242;12.442;2023-10-19T03:06:26;4.63;;;1.52;;
69502;SDS011;56704;54.242;12.442;2023-10-19T03:08:56;3.97;;;1.50;;
69502;SDS011;56704;54.242;12.442;2023-10-19T03:11:22;5.07;;;1.30;;
69502;SDS011;56704;54.242;12.442;2023-10-19T03:13:49;4.55;;;1.33;;
69502;SDS011;56704;54.242;12.442;2023-10-19T03:16:15;5.00;;;1.40;;
69502;SDS011;56704;54.242;12.442;2023-10-19T03:18:42;4.88;;;1.50;;
69502;SDS011;56704;54.242;12.442;2023-10-19T03:21:08;3.90;;;1.20;;
69502;SDS011;56704;54.242;12.442;2023-10-19T03:23:37;4.28;;;1.20;;
69502;SDS011;56704;54.242;12.442;2023-10-19T03:26:03;3.53;;;1.20;;
69502;SDS011;56704;54.242;12.442;2023-10-19T03:28:47;4.07;;;1.10;;
69502;SDS011;56704;54.242;12.442;2023-10-19T03:31:16;3.90;;;0.90;;
69502;SDS011;56704;54.242;12.442;2023-10-19T03:33:44;4.47;;;1.17;;
69502;SDS011;56704;54.242;12.442;2023-10-19T03:36:13;3.40;;;1.25;;
69502;SDS011;56704;54.242;12.442;2023-10-19T03:38:41;4.20;;;1.20;;
69502;SDS011;56704;54.242;12.442;2023-10-19T03:41:08;5.35;;;1.50;;
69502;SDS011;56704;54.242;12.442;2023-10-19T03:43:36;6.57;;;1.43;;
69502;SDS011;56704;54.242;12.442;2023-10-19T03:46:05;4.22;;;1.20;;
69502;SDS011;56704;54.242;12.442;2023-10-19T03:48:40;5.07;;;1.65;;
69502;SDS011;56704;54.242;12.442;2023-10-19T03:51:07;11.77;;;1.67;;
69502;SDS011;56704;54.242;12.442;2023-10-19T03:53:37;7.15;;;1.83;;
69502;SDS011;56704;54.242;12.442;2023-10-19T03:56:09;6.63;;;1.80;;
69502;SDS011;56704;54.242;12.442;2023-10-19T03:58:36;8.25;;;1.85;;
69502;SDS011;56704;54.242;12.442;2023-10-19T04:01:05;5.22;;;1.70;;
69502;SDS011;56704;54.242;12.442;2023-10-19T04:03:32;5.10;;;1.58;;
69502;SDS011;56704;54.242;12.442;2023-10-19T04:06:01;5.65;;;1.58;;
69502;SDS011;56704;54.242;12.442;2023-10-19T04:08:29;4.03;;;1.53;;
69502;SDS011;56704;54.242;12.442;2023-10-19T04:11:00;5.82;;;1.70;;
69502;SDS011;56704;54.242;12.442;2023-10-19T04:13:48;6.40;;;1.90;;
69502;SDS011;56704;54.242;12.442;2023-10-19T04:16:18;6.13;;;1.60;;
69502;SDS011;56704;54.242;12.442;2023-10-19T04:18:45;5.03;;;1.60;;
69502;SDS011;56704;54.242;12.442;2023-10-19T04:21:13;8.93;;;1.80;;
69502;SDS011;56704;54.242;12.442;2023-10-19T04:23:40;5.38;;;1.80;;
69502;SDS011;56704;54.242;12.442;2023-10-19T04:26:08;5.15;;;1.58;;
69502;SDS011;56704;54.242;12.442;2023-10-19T04:28:37;3.83;;;1.20;;
69502;SDS011;56704;54.242;12.442;2023-10-19T04:31:11;5.28;;;1.63;;
69502;SDS011;56704;54.242;12.442;2023-10-19T04:33:41;3.43;;;1.10;;
69502;SDS011;56704;54.242;12.442;2023-10-19T04:36:13;4.65;;;1.27;;
69502;SDS011;56704;54.242;12.442;2023-10-19T04:38:41;8.68;;;1.35;;
69502;SDS011;56704;54.242;12.442;2023-10-19T04:41:09;6.03;;;1.25;;
69502;SDS011;56704;54.242;12.442;2023-10-19T04:43:37;4.57;;;1.17;;
69502;SDS011;56704;54.242;12.442;2023-10-19T04:46:05;5.77;;;1.37;;
69502;SDS011;56704;54.242;12.442;2023-10-19T04:48:38;6.70;;;1.50;;
69502;SDS011;56704;54.242;12.442;2023-10-19T04:51:07;5.00;;;1.60;;
69502;SDS011;56704;54.242;12.442;2023-10-19T04:53:35;4.82;;;1.10;;
69502;SDS011;56704;54.242;12.442;2023-10-19T04:56:02;4.47;;;1.30;;
69502;SDS011;56704;54.242;12.442;2023-10-19T04:58:29;4.80;;;1.40;;
69502;SDS011;56704;54.242;12.442;2023-10-19T05:00:56;4.10;;;1.58;;
69502;SDS011;56704;54.242;12.442;2023-10-19T05:03:24;5.05;;;1.15;;
69502;SDS011;56704;54.242;12.442;2023-10-19T05:05:52;5.45;;;1.20;;
69502;SDS011;56704;54.242;12.442;2023-10-19T05:08:19;5.45;;;1.58;;
69502;SDS011;56704;54.242;12.442;2023-10-19T05:10:50;5.40;;;1.60;;
69502;SDS011;56704;54.242;12.442;2023-10-19T05:13:17;8.40;;;2.03;;
69502;SDS011;56704;54.242;12.442;2023-10-19T05:15:45;5.68;;;1.80;;
69502;SDS011;56704;54.242;12.442;2023-10-19T05:18:12;7.10;;;1.85;;
69502;SDS011;56704;54.242;12.442;2023-10-19T05:20:38;4.85;;;1.50;;
69502;SDS011;56704;54.242;12.442;2023-10-19T05:23:08;4.50;;;1.37;;
69502;SDS011;56704;54.242;12.442;2023-10-19T05:25:34;4.13;;;1.15;;
69502;SDS011;56704;54.242;12.442;2023-10-19T05:28:03;6.20;;;1.23;;
69502;SDS011;56704;54.242;12.442;2023-10-19T05:30:30;5.80;;;1.35;;
69502;SDS011;56704;54.242;12.442;2023-10-19T05:32:58;5.32;;;1.70;;
69502;SDS011;56704;54.242;12.442;2023-10-19T05:35:24;4.33;;;1.30;;
69502;SDS011;56704;54.242;12.442;2023-10-19T05:37:52;4.20;;;1.30;;
69502;SDS011;56704;54.242;12.442;2023-10-19T05:40:22;4.20;;;1.40;;
69502;SDS011;56704;54.242;12.442;2023-10-19T05:42:54;3.08;;;1.00;;
69502;SDS011;56704;54.242;12.442;2023-10-19T05:45:21;3.95;;;1.35;;
69502;SDS011;56704;54.242;12.442;2023-10-19T05:47:48;5.57;;;1.17;;
69502;SDS011;56704;54.242;12.442;2023-10-19T05:50:14;5.70;;;1.50;;
69502;SDS011;56704;54.242;12.442;2023-10-19T05:52:41;4.35;;;1.50;;
69502;SDS011;56704;54.242;12.442;2023-10-19T05:55:08;5.40;;;1.60;;
69502;SDS011;56704;54.242;12.442;2023-10-19T05:57:37;3.85;;;1.25;;
69502;SDS011;56704;54.242;12.442;2023-10-19T06:00:06;4.20;;;1.40;;
69502;SDS011;56704;54.242;12.442;2023-10-19T06:02:38;6.07;;;1.55;;
69502;SDS011;56704;54.242;12.442;2023-10-19T06:05:05;4.45;;;1.45;;
69502;SDS011;56704;54.242;12.442;2023-10-19T06:07:32;3.55;;;1.30;;
69502;SDS011;56704;54.242;12.442;2023-10-19T06:09:59;4.88;;;1.40;;
69502;SDS011;56704;54.242;12.442;2023-10-19T06:12:29;6.20;;;1.50;;
69502;SDS011;56704;54.242;12.442;2023-10-19T06:14:58;4.47;;;1.60;;
69502;SDS011;56704;54.242;12.442;2023-10-19T06:17:25;7.57;;;1.80;;
69502;SDS011;56704;54.242;12.442;2023-10-19T06:19:53;3.55;;;1.25;;
69502;SDS011;56704;54.242;12.442;2023-10-19T06:22:20;3.90;;;1.35;;
69502;SDS011;56704;54.242;12.442;2023-10-19T06:24:47;5.23;;;1.60;;
69502;SDS011;56704;54.242;12.442;2023-10-19T06:27:14;5.70;;;2.00;;
69502;SDS011;56704;54.242;12.442;2023-10-19T06:29:40;5.05;;;1.63;;
69502;SDS011;56704;54.242;12.442;2023-10-19T06:32:08;5.32;;;1.67;;
69502;SDS011;56704;54.242;12.442;2023-10-19T06:34:38;5.70;;;2.20;;
69502;SDS011;56704;54.242;12.442;2023-10-19T06:37:04;5.53;;;1.73;;
69502;SDS011;56704;54.242;12.442;2023-10-19T06:39:33;6.68;;;1.92;;
69502;SDS011;56704;54.242;12.442;2023-10-19T06:42:03;7.15;;;2.80;;
69502;SDS011;56704;54.242;12.442;2023-10-19T06:44:30;8.07;;;2.40;;
69502;SDS011;56704;54.242;12.442;2023-10-19T06:46:56;5.82;;;2.30;;
69502;SDS011;56704;54.242;12.442;2023-10-19T06:49:24;6.10;;;2.17;;
69502;SDS011;56704;54.242;12.442;2023-10-19T06:51:51;7.85;;;2.30;;
69502;SDS011;56704;54.242;12.442;2023-10-19T06:54:18;8.65;;;2.75;;
69502;SDS011;56704;54.242;12.442;2023-10-19T06:56:44;6.22;;;2.20;;
69502;SDS011;56704;54.242;12.442;2023-10-19T06:59:11;6.63;;;2.22;;
69502;SDS011;56704;54.242;12.442;2023-10-19T07:01:38;6.63;;;2.20;;
69502;SDS011;56704;54.242;12.442;2023-10-19T07:04:05;6.35;;;2.13;;
69502;SDS011;56704;54.242;12.442;2023-10-19T07:06:33;8.40;;;2.03;;
69502;SDS011;56704;54.242;12.442;2023-10-19T07:09:00;7.93;;;1.80;;
69502;SDS011;56704;54.242;12.442;2023-10-19T07:11:29;5.93;;;1.45;;
69502;SDS011;56704;54.242;12.442;2023-10-19T07:13:55;8.90;;;2.10;;
69502;SDS011;56704;54.242;12.442;2023-10-19T07:16:22;7.05;;;2.03;;
69502;SDS011;56704;54.242;12.442;2023-10-19T07:18:48;5.90;;;2.08;;
69502;SDS011;56704;54.242;12.442;2023-10-19T07:21:16;7.47;;;2.08;;
69502;SDS011;56704;54.242;12.442;2023-10-19T07:23:44;5.95;;;1.80;;
69502;SDS011;56704;54.242;12.442;2023-10-19T07:26:14;6.77;;;2.00;;
69502;SDS011;56704;54.242;12.442;2023-10-19T07:28:40;7.97;;;2.15;;
69502;SDS011;56704;54.242;12.442;2023-10-19T07:31:07;5.18;;;1.98;;
69502;SDS011;56704;54.242;12.442;2023-10-19T07:33:38;10.43;;;2.45;;
69502;SDS011;56704;54.242;12.442;2023-10-19T07:36:12;6.60;;;2.20;;
69502;SDS011;56704;54.242;12.442;2023-10-19T07:38:39;7.03;;;2.07;;
69502;SDS011;56704;54.242;12.442;2023-10-19T07:41:08;7.55;;;1.60;;
69502;SDS011;56704;54.242;12.442;2023-10-19T07:43:35;6.88;;;1.95;;
69502;SDS011;56704;54.242;12.442;2023-10-19T07:46:02;5.13;;;1.40;;
69502;SDS011;56704;54.242;12.442;2023-10-19T07:48:28;4.90;;;1.35;;
69502;SDS011;56704;54.242;12.442;2023-10-19T07:50:55;5.90;;;1.97;;
69502;SDS011;56704;54.242;12.442;2023-10-19T07:53:21;4.55;;;1.55;;
69502;SDS011;56704;54.242;12.442;2023-10-19T07:55:49;6.57;;;1.70;;
69502;SDS011;56704;54.242;12.442;2023-10-19T07:58:18;11.27;;;2.97;;
69502;SDS011;56704;54.242;12.442;2023-10-19T08:00:45;9.75;;;2.88;;
69502;SDS011;56704;54.242;12.442;2023-10-19T08:03:12;8.13;;;3.30;;
69502;SDS011;56704;54.242;12.442;2023-10-19T08:05:41;8.18;;;3.28;;
69502;SDS011;56704;54.242;12.442;2023-10-19T08:08:07;5.38;;;2.20;;
69502;SDS011;56704;54.242;12.442;2023-10-19T08:10:34;9.98;;;3.40;;
69502;SDS011;56704;54.242;12.442;2023-10-19T08:13:02;9.50;;;3.80;;
69502;SDS011;56704;54.242;12.442;2023-10-19T08:15:30;10.23;;;4.13;;
69502;SDS011;56704;54.242;12.442;2023-10-19T08:17:57;8.55;;;4.32;;
69502;SDS011;56704;54.242;12.442;2023-10-19T08:20:23;11.10;;;4.32;;
69502;SDS011;56704;54.242;12.442;2023-10-19T08:22:55;8.05;;;3.67;;
69502;SDS011;56704;54.242;12.442;2023-10-19T08:25:23;8.18;;;3.65;;
69502;SDS011;56704;54.242;12.442;2023-10-19T08:27:52;9.97;;;3.60;;
69502;SDS011;56704;54.242;12.442;2023-10-19T08:30:22;10.45;;;4.22;;
69502;SDS011;56704;54.242;12.442;2023-10-19T08:32:51;11.02;;;4.30;;
69502;SDS011;56704;54.242;12.442;2023-10-19T08:35:18;8.13;;;3.58;;
69502;SDS011;56704;54.242;12.442;2023-10-19T08:37:49;7.13;;;2.45;;
69502;SDS011;56704;54.242;12.442;2023-10-19T08:40:16;6.37;;;1.80;;
69502;SDS011;56704;54.242;12.442;2023-10-19T08:42:43;5.80;;;2.00;;
69502;SDS011;56704;54.242;12.442;2023-10-19T08:45:11;6.30;;;2.10;;
69502;SDS011;56704;54.242;12.442;2023-10-19T08:47:40;5.30;;;1.88;;
69502;SDS011;56704;54.242;12.442;2023-10-19T08:50:11;6.63;;;2.00;;
69502;SDS011;56704;54.242;12.442;2023-10-19T08:52:38;6.03;;;1.93;;
69502;SDS011;56704;54.242;12.442;2023-10-19T08:55:07;8.82;;;2.15;;
69502;SDS011;56704;54.242;12.442;2023-10-19T08:57:35;6.55;;;2.20;;
69502;SDS011;56704;54.242;12.442;2023-10-19T09:00:04;5.97;;;2.17;;
69502;SDS011;56704;54.242;12.442;2023-10-19T09:02:32;7.22;;;2.65;;
69502;SDS011;56704;54.242;12.442;2023-10-19T09:04:58;6.50;;;2.30;;
69502;SDS011;56704;54.242;12.442;2023-10-19T09:07:26;9.05;;;2.88;;
69502;SDS011;56704;54.242;12.442;2023-10-19T09:09:55;9.63;;;3.35;;
69502;SDS011;56704;54.242;12.442;2023-10-19T09:12:22;10.23;;;3.47;;
69502;SDS011;56704;54.242;12.442;2023-10-19T09:14:49;12.63;;;4.53;;
69502;SDS011;56704;54.242;12.442;2023-10-19T09:17:15;14.47;;;3.80;;
69502;SDS011;56704;54.242;12.442;2023-10-19T09:19:43;8.15;;;2.90;;
69502;SDS011;56704;54.242;12.442;2023-10-19T09:22:12;7.75;;;2.65;;
69502;SDS011;56704;54.242;12.442;2023-10-19T09:24:45;8.25;;;2.65;;
69502;SDS011;56704;54.242;12.442;2023-10-19T09:27:12;6.60;;;2.35;;
69502;SDS011;56704;54.242;12.442;2023-10-19T09:29:39;7.30;;;2.43;;
69502;SDS011;56704;54.242;12.442;2023-10-19T09:32:06;8.20;;;2.50;;
69502;SDS011;56704;54.242;12.442;2023-10-19T09:34:34;10.85;;;3.38;;
69502;SDS011;56704;54.242;12.442;2023-10-19T09:37:02;9.30;;;3.20;;
69502;SDS011;56704;54.242;12.442;2023-10-19T09:39:30;12.23;;;3.88;;
69502;SDS011;56704;54.242;12.442;2023-10-19T09:42:02;9.00;;;2.70;;
69502;SDS011;56704;54.242;12.442;2023-10-19T09:44:32;8.85;;;3.17;;
69502;SDS011;56704;54.242;12.442;2023-10-19T09:47:07;7.72;;;2.50;;
69502;SDS011;56704;54.242;12.442;2023-10-19T09:49:38;7.70;;;2.50;;
69502;SDS011;56704;54.242;12.442;2023-10-19T09:52:05;6.50;;;2.50;;
69502;SDS011;56704;54.242;12.442;2023-10-19T09:54:34;10.23;;;2.20;;
69502;SDS011;56704;54.242;12.442;2023-10-19T09:57:14;7.68;;;2.75;;
69502;SDS011;56704;54.242;12.442;2023-10-19T09:59:46;6.53;;;2.45;;
69502;SDS011;56704;54.242;12.442;2023-10-19T10:02:20;7.22;;;2.65;;
69502;SDS011;56704;54.242;12.442;2023-10-19T10:04:47;7.40;;;2.30;;
69502;SDS011;56704;54.242;12.442;2023-10-19T10:07:14;8.10;;;2.63;;
69502;SDS011;56704;54.242;12.442;2023-10-19T10:09:42;6.72;;;2.50;;
69502;SDS011;56704;54.242;12.442;2023-10-19T10:12:20;6.53;;;1.92;;
69502;SDS011;56704;54.242;12.442;2023-10-19T10:14:55;8.02;;;1.95;;
69502;SDS011;56704;54.242;12.442;2023-10-19T10:17:23;8.48;;;2.10;;
69502;SDS011;56704;54.242;12.442;2023-10-19T10:19:53;6.53;;;2.07;;
69502;SDS011;56704;54.242;12.442;2023-10-19T10:22:21;8.65;;;2.05;;
69502;SDS011;56704;54.242;12.442;2023-10-19T10:24:53;5.45;;;2.08;;
69502;SDS011;56704;54.242;12.442;2023-10-19T10:27:23;7.53;;;2.53;;
69502;SDS011;56704;54.242;12.442;2023-10-19T10:29:53;9.48;;;2.80;;
69502;SDS011;56704;54.242;12.442;2023-10-19T10:35:09;5.60;;;2.30;;
69502;SDS011;56704;54.242;12.442;2023-10-19T10:37:36;6.32;;;2.40;;
69502;SDS011;56704;54.242;12.442;2023-10-19T10:40:03;9.02;;;2.88;;
69502;SDS011;56704;54.242;12.442;2023-10-19T10:42:33;6.32;;;2.03;;
69502;SDS011;56704;54.242;12.442;2023-10-19T10:45:00;8.97;;;2.27;;
69502;SDS011;56704;54.242;12.442;2023-10-19T10:47:30;7.43;;;2.38;;
69502;SDS011;56704;54.242;12.442;2023-10-19T10:49:59;7.80;;;2.88;;
69502;SDS011;56704;54.242;12.442;2023-10-19T10:52:27;8.75;;;2.60;;
69502;SDS011;56704;54.242;12.442;2023-10-19T10:54:55;7.25;;;2.80;;
69502;SDS011;56704;54.242;12.442;2023-10-19T10:57:21;8.27;;;2.70;;
69502;SDS011;56704;54.242;12.442;2023-10-19T11:00:01;8.60;;;2.80;;
69502;SDS011;56704;54.242;12.442;2023-10-19T11:02:30;7.82;;;2.72;;
69502;SDS011;56704;54.242;12.442;2023-10-19T11:04:57;8.50;;;3.10;;
69502;SDS011;56704;54.242;12.442;2023-10-19T11:07:25;6.25;;;2.40;;
69502;SDS011;56704;54.242;12.442;2023-10-19T11:09:52;7.20;;;2.33;;
69502;SDS011;56704;54.242;12.442;2023-10-19T11:12:19;8.52;;;3.30;;
69502;SDS011;56704;54.242;12.442;2023-10-19T11:14:52;7.63;;;3.15;;
69502;SDS011;56704;54.242;12.442;2023-10-19T11:17:21;7.57;;;2.80;;
69502;SDS011;56704;54.242;12.442;2023-10-19T11:19:53;6.75;;;2.25;;
69502;SDS011;56704;54.242;12.442;2023-10-19T11:22:21;6.07;;;2.27;;
69502;SDS011;56704;54.242;12.442;2023-10-19T11:24:49;7.32;;;2.50;;
69502;SDS011;56704;54.242;12.442;2023-10-19T11:27:21;7.30;;;2.90;;
69502;SDS011;56704;54.242;12.442;2023-10-19T11:29:54;7.20;;;2.70;;
69502;SDS011;56704;54.242;12.442;2023-10-19T11:32:23;7.95;;;3.00;;
69502;SDS011;56704;54.242;12.442;2023-10-19T11:34:51;6.73;;;2.40;;
69502;SDS011;56704;54.242;12.442;2023-10-19T11:37:18;6.22;;;2.22;;
69502;SDS011;56704;54.242;12.442;2023-10-19T11:39:44;6.75;;;2.47;;
69502;SDS011;56704;54.242;12.442;2023-10-19T11:42:11;7.00;;;2.60;;
69502;SDS011;56704;54.242;12.442;2023-10-19T11:44:38;7.65;;;2.70;;
69502;SDS011;56704;54.242;12.442;2023-10-19T11:47:05;6.57;;;2.33;;
69502;SDS011;56704;54.242;12.442;2023-10-19T11:49:33;7.88;;;3.03;;
69502;SDS011;56704;54.242;12.442;2023-10-19T11:51:59;8.48;;;3.25;;
69502;SDS011;56704;54.242;12.442;2023-10-19T11:54:27;8.15;;;2.80;;
69502;SDS011;56704;54.242;12.442;2023-10-19T11:56:54;8.30;;;3.28;;
69502;SDS011;56704;54.242;12.442;2023-10-19T11:59:21;8.87;;;3.00;;
69502;SDS011;56704;54.242;12.442;2023-10-19T12:01:48;7.70;;;2.65;;
69502;SDS011;56704;54.242;12.442;2023-10-19T12:04:15;8.07;;;2.95;;
69502;SDS011;56704;54.242;12.442;2023-10-19T12:06:43;8.70;;;2.92;;
69502;SDS011;56704;54.242;12.442;2023-10-19T12:09:11;7.45;;;3.13;;
69502;SDS011;56704;54.242;12.442;2023-10-19T12:11:40;9.40;;;3.70;;
69502;SDS011;56704;54.242;12.442;2023-10-19T12:14:07;10.27;;;3.25;;
69502;SDS011;56704;54.242;12.442;2023-10-19T12:16:36;9.13;;;3.33;;
69502;SDS011;56704;54.242;12.442;2023-10-19T12:19:04;7.28;;;2.83;;
69502;SDS011;56704;54.242;12.442;2023-10-19T12:21:33;6.80;;;3.03;;
69502;SDS011;56704;54.242;12.442;2023-10-19T12:24:04;6.57;;;2.90;;
69502;SDS011;56704;54.242;12.442;2023-10-19T12:26:32;8.60;;;3.28;;
69502;SDS011;56704;54.242;12.442;2023-10-19T12:28:59;10.77;;;3.83;;
69502;SDS011;56704;54.242;12.442;2023-10-19T12:31:26;6.68;;;2.85;;
69502;SDS011;56704;54.242;12.442;2023-10-19T12:33:52;10.75;;;4.28;;
69502;SDS011;56704;54.242;12.442;2023-10-19T12:36:19;11.43;;;3.90;;
69502;SDS011;56704;54.242;12.442;2023-10-19T12:38:56;9.52;;;3.50;;
69502;SDS011;56704;54.242;12.442;2023-10-19T12:41:24;8.52;;;3.67;;
69502;SDS011;56704;54.242;12.442;2023-10-19T12:43:52;9.05;;;3.10;;
69502;SDS011;56704;54.242;12.442;2023-10-19T12:46:22;8.20;;;3.30;;
69502;SDS011;56704;54.242;12.442;2023-10-19T12:48:50;8.90;;;3.43;;
69502;SDS011;56704;54.242;12.442;2023-10-19T12:51:16;7.72;;;3.35;;
69502;SDS011;56704;54.242;12.442;2023-10-19T12:53:48;8.75;;;4.03;;
69502;SDS011;56704;54.242;12.442;2023-10-19T12:56:16;9.02;;;3.50;;
69502;SDS011;56704;54.242;12.442;2023-10-19T12:58:44;8.98;;;3.28;;
69502;SDS011;56704;54.242;12.442;2023-10-19T13:01:11;8.17;;;3.47;;
69502;SDS011;56704;54.242;12.442;2023-10-19T13:03:41;8.40;;;3.70;;
69502;SDS011;56704;54.242;12.442;2023-10-19T13:06:10;8.30;;;3.25;;
69502;SDS011;56704;54.242;12.442;2023-10-19T13:08:37;9.68;;;3.63;;
69502;SDS011;56704;54.242;12.442;2023-10-19T13:11:05;7.63;;;3.20;;
69502;SDS011;56704;54.242;12.442;2023-10-19T13:13:32;8.67;;;2.93;;
69502;SDS011;56704;54.242;12.442;2023-10-19T13:16:02;7.28;;;2.63;;
69502;SDS011;56704;54.242;12.442;2023-10-19T13:18:31;7.93;;;3.00;;
69502;SDS011;56704;54.242;12.442;2023-10-19T13:20:59;8.52;;;3.08;;
69502;SDS011;56704;54.242;12.442;2023-10-19T13:23:29;9.18;;;3.20;;
69502;SDS011;56704;54.242;12.442;2023-10-19T13:25:58;10.43;;;3.20;;
69502;SDS011;56704;54.242;12.442;2023-10-19T13:28:33;9.63;;;3.60;;
69502;SDS011;56704;54.242;12.442;2023-10-19T13:31:00;6.07;;;2.63;;
69502;SDS011;56704;54.242;12.442;2023-10-19T13:33:30;9.27;;;2.90;;
69502;SDS011;56704;54.242;12.442;2023-10-19T13:35:57;8.05;;;3.00;;
69502;SDS011;56704;54.242;12.442;2023-10-19T13:38:23;6.13;;;2.00;;
69502;SDS011;56704;54.242;12.442;2023-10-19T13:40:50;7.20;;;2.70;;
69502;SDS011;56704;54.242;12.442;2023-10-19T13:43:17;7.60;;;2.72;;
69502;SDS011;56704;54.242;12.442;2023-10-19T13:45:45;7.75;;;3.00;;
69502;SDS011;56704;54.242;12.442;2023-10-19T13:48:13;7.40;;;3.10;;
69502;SDS011;56704;54.242;12.442;2023-10-19T13:50:42;7.40;;;3.00;;
69502;SDS011;56704;54.242;12.442;2023-10-19T13:53:11;6.20;;;2.70;;
69502;SDS011;56704;54.242;12.442;2023-10-19T13:55:37;9.57;;;2.97;;
69502;SDS011;56704;54.242;12.442;2023-10-19T13:58:04;8.68;;;2.95;;
69502;SDS011;56704;54.242;12.442;2023-10-19T14:00:32;9.48;;;3.45;;
69502;SDS011;56704;54.242;12.442;2023-10-19T14:03:05;10.13;;;2.80;;
69502;SDS011;56704;54.242;12.442;2023-10-19T14:05:35;7.20;;;2.35;;
69502;SDS011;56704;54.242;12.442;2023-10-19T14:08:04;7.25;;;2.50;;
69502;SDS011;56704;54.242;12.442;2023-10-19T14:10:32;6.80;;;2.83;;
69502;SDS011;56704;54.242;12.442;2023-10-19T14:12:58;7.13;;;2.60;;
69502;SDS011;56704;54.242;12.442;2023-10-19T14:15:25;7.43;;;2.77;;
69502;SDS011;56704;54.242;12.442;2023-10-19T14:17:55;7.30;;;2.63;;
69502;SDS011;56704;54.242;12.442;2023-10-19T14:20:23;7.50;;;2.78;;
69502;SDS011;56704;54.242;12.442;2023-10-19T14:22:50;9.05;;;2.60;;
69502;SDS011;56704;54.242;12.442;2023-10-19T14:25:20;8.43;;;2.90;;
69502;SDS011;56704;54.242;12.442;2023-10-19T14:27:48;6.03;;;2.13;;
69502;SDS011;56704;54.242;12.442;2023-10-19T14:30:16;7.30;;;2.10;;
69502;SDS011;56704;54.242;12.442;2023-10-19T14:32:44;7.93;;;2.25;;
69502;SDS011;56704;54.242;12.442;2023-10-19T14:35:15;5.53;;;2.10;;
69502;SDS011;56704;54.242;12.442;2023-10-19T14:37:44;6.63;;;2.70;;
69502;SDS011;56704;54.242;12.442;2023-10-19T14:40:11;5.30;;;2.10;;
69502;SDS011;56704;54.242;12.442;2023-10-19T14:42:41;6.63;;;2.20;;
69502;SDS011;56704;54.242;12.442;2023-10-19T14:45:08;6.00;;;2.05;;